sensor_id;sensor_type;location;lat;lon;timestamp;pressure;altitude;pressure_sealevel;temperature;humidity
63654;BME280;49809;47.418;19.080;2022-07-15T00:00:22;100016.59;;;21.05;60.38
63654;BME280;49809;47.418;19.080;2022-07-15T00:03:26;100022.63;;;21.02;60.98
63654;BME280;49809;47.418;19.080;2022-07-15T00:06:32;100026.38;;;21.10;60.26
63654;BME280;49809;47.418;19.080;2022-07-15T00:09:38;100069.81;;;21.29;58.69
63654;BME280;49809;47.418;19.080;2022-07-15T00:13:02;100091.87;;;21.43;58.24
63654;BME280;49809;47.418;19.080;2022-07-15T00:16:06;100123.75;;;21.62;56.74
63654;BME280;49809;47.418;19.080;2022-07-15T00:19:10;100102.50;;;21.81;55.97
63654;BME280;49809;47.418;19.080;2022-07-15T00:22:13;100054.66;;;21.99;55.33
63654;BME280;49809;47.418;19.080;2022-07-15T00:25:17;100059.72;;;22.13;54.73
63654;BME280;49809;47.418;19.080;2022-07-15T00:28:24;100083.78;;;22.18;54.33
63654;BME280;49809;47.418;19.080;2022-07-15T00:31:28;100083.78;;;22.18;55.07
63654;BME280;49809;47.418;19.080;2022-07-15T00:34:35;100071.09;;;22.18;55.00
63654;BME280;49809;47.418;19.080;2022-07-15T00:37:38;100064.47;;;22.16;55.29
63654;BME280;49809;47.418;19.080;2022-07-15T00:40:49;100062.91;;;22.15;55.36
63654;BME280;49809;47.418;19.080;2022-07-15T00:43:55;100045.94;;;22.14;55.27
63654;BME280;49809;47.418;19.080;2022-07-15T00:46:59;100041.34;;;22.15;55.10
63654;BME280;49809;47.418;19.080;2022-07-15T00:50:03;100034.50;;;22.17;55.76
63654;BME280;49809;47.418;19.080;2022-07-15T00:53:16;100032.34;;;22.23;55.30
63654;BME280;49809;47.418;19.080;2022-07-15T00:56:25;100054.37;;;22.25;55.00
63654;BME280;49809;47.418;19.080;2022-07-15T00:59:31;100027.88;;;22.27;55.33
63654;BME280;49809;47.418;19.080;2022-07-15T01:02:37;100028.31;;;22.29;55.59
63654;BME280;49809;47.418;19.080;2022-07-15T01:05:44;100029.22;;;22.33;55.35
63654;BME280;49809;47.418;19.080;2022-07-15T01:08:49;100018.22;;;22.38;55.11
63654;BME280;49809;47.418;19.080;2022-07-15T01:11:56;100028.78;;;22.31;55.65
63654;BME280;49809;47.418;19.080;2022-07-15T01:14:59;100041.69;;;22.25;55.52
63654;BME280;49809;47.418;19.080;2022-07-15T01:18:09;100068.19;;;22.11;56.51
63654;BME280;49809;47.418;19.080;2022-07-15T01:21:13;100084.00;;;22.13;56.15
63654;BME280;49809;47.418;19.080;2022-07-15T01:24:20;100085.13;;;22.12;56.36
63654;BME280;49809;47.418;19.080;2022-07-15T01:27:23;100084.87;;;22.04;56.57
63654;BME280;49809;47.418;19.080;2022-07-15T01:30:29;100083.84;;;21.97;56.58
63654;BME280;49809;47.418;19.080;2022-07-15T01:33:37;100095.28;;;21.94;56.84
63654;BME280;49809;47.418;19.080;2022-07-15T01:36:47;100106.78;;;21.82;57.10
63654;BME280;49809;47.418;19.080;2022-07-15T01:39:54;100109.94;;;21.84;58.05
63654;BME280;49809;47.418;19.080;2022-07-15T01:42:58;100104.28;;;21.77;57.74
63654;BME280;49809;47.418;19.080;2022-07-15T01:46:11;100100.03;;;21.76;58.14
63654;BME280;49809;47.418;19.080;2022-07-15T01:49:16;100088.22;;;21.68;58.61
63654;BME280;49809;47.418;19.080;2022-07-15T01:52:31;100088.34;;;21.51;58.77
63654;BME280;49809;47.418;19.080;2022-07-15T01:55:36;100085.97;;;21.50;58.75
63654;BME280;49809;47.418;19.080;2022-07-15T01:58:40;100088.13;;;21.36;59.41
63654;BME280;49809;47.418;19.080;2022-07-15T02:01:48;100062.78;;;21.37;60.28
63654;BME280;49809;47.418;19.080;2022-07-15T02:04:53;100074.41;;;21.29;60.66
63654;BME280;49809;47.418;19.080;2022-07-15T02:08:00;100069.75;;;21.08;61.28
63654;BME280;49809;47.418;19.080;2022-07-15T02:11:07;100071.19;;;21.14;60.78
63654;BME280;49809;47.418;19.080;2022-07-15T02:14:19;100097.34;;;21.05;61.04
63654;BME280;49809;47.418;19.080;2022-07-15T02:17:25;100107.94;;;21.02;62.04
63654;BME280;49809;47.418;19.080;2022-07-15T02:20:29;100100.84;;;20.97;62.14
63654;BME280;49809;47.418;19.080;2022-07-15T02:23:39;100066.34;;;20.99;62.58
63654;BME280;49809;47.418;19.080;2022-07-15T02:26:46;100064.03;;;20.89;62.51
63654;BME280;49809;47.418;19.080;2022-07-15T02:29:52;100077.94;;;20.91;62.49
63654;BME280;49809;47.418;19.080;2022-07-15T02:33:00;100091.00;;;21.01;62.31
63654;BME280;49809;47.418;19.080;2022-07-15T02:36:04;100103.66;;;21.09;62.15
63654;BME280;49809;47.418;19.080;2022-07-15T02:39:10;100124.06;;;21.10;61.99
63654;BME280;49809;47.418;19.080;2022-07-15T02:42:16;100143.69;;;21.19;62.04
63654;BME280;49809;47.418;19.080;2022-07-15T02:45:24;100168.47;;;21.34;61.86
63654;BME280;49809;47.418;19.080;2022-07-15T02:48:30;100195.28;;;21.51;61.67
63654;BME280;49809;47.418;19.080;2022-07-15T02:51:36;100204.38;;;21.67;61.72
63654;BME280;49809;47.418;19.080;2022-07-15T02:54:46;100192.03;;;22.07;59.78
63654;BME280;49809;47.418;19.080;2022-07-15T02:57:52;100188.28;;;22.21;59.33
63654;BME280;49809;47.418;19.080;2022-07-15T03:00:59;100180.50;;;22.40;58.53
63654;BME280;49809;47.418;19.080;2022-07-15T03:04:06;100178.09;;;22.71;56.41
63654;BME280;49809;47.418;19.080;2022-07-15T03:07:09;100178.56;;;22.85;54.68
63654;BME280;49809;47.418;19.080;2022-07-15T03:10:14;100178.84;;;23.17;53.29
63654;BME280;49809;47.418;19.080;2022-07-15T03:13:28;100167.34;;;23.32;52.41
63654;BME280;49809;47.418;19.080;2022-07-15T03:16:35;100175.44;;;23.44;49.93
63654;BME280;49809;47.418;19.080;2022-07-15T03:19:39;100166.69;;;23.47;49.74
63654;BME280;49809;47.418;19.080;2022-07-15T03:22:45;100162.84;;;23.60;48.02
63654;BME280;49809;47.418;19.080;2022-07-15T03:25:54;100153.38;;;23.66;48.32
63654;BME280;49809;47.418;19.080;2022-07-15T03:29:01;100161.25;;;23.71;47.35
63654;BME280;49809;47.418;19.080;2022-07-15T03:32:06;100176.75;;;23.74;47.12
63654;BME280;49809;47.418;19.080;2022-07-15T03:35:13;100174.69;;;23.83;46.17
63654;BME280;49809;47.418;19.080;2022-07-15T03:38:19;100167.34;;;23.96;45.17
63654;BME280;49809;47.418;19.080;2022-07-15T03:41:25;100174.78;;;23.99;44.94
63654;BME280;49809;47.418;19.080;2022-07-15T03:44:31;100168.81;;;23.94;45.41
63654;BME280;49809;47.418;19.080;2022-07-15T03:47:34;100157.84;;;24.02;44.08
63654;BME280;49809;47.418;19.080;2022-07-15T03:50:42;100152.91;;;24.04;43.62
63654;BME280;49809;47.418;19.080;2022-07-15T03:53:49;100164.75;;;24.00;44.44
63654;BME280;49809;47.418;19.080;2022-07-15T03:56:52;100164.28;;;23.98;44.33
63654;BME280;49809;47.418;19.080;2022-07-15T03:59:55;100163.06;;;23.95;44.57
63654;BME280;49809;47.418;19.080;2022-07-15T04:03:01;100179.09;;;23.88;44.85
63654;BME280;49809;47.418;19.080;2022-07-15T04:06:04;100184.25;;;23.93;44.50
63654;BME280;49809;47.418;19.080;2022-07-15T04:09:10;100202.03;;;23.94;44.95
63654;BME280;49809;47.418;19.080;2022-07-15T04:12:17;100218.38;;;23.98;44.47
63654;BME280;49809;47.418;19.080;2022-07-15T04:15:26;100208.03;;;23.88;45.11
63654;BME280;49809;47.418;19.080;2022-07-15T04:18:30;100198.78;;;23.89;45.20
63654;BME280;49809;47.418;19.080;2022-07-15T04:21:36;100198.59;;;23.81;45.66
63654;BME280;49809;47.418;19.080;2022-07-15T04:24:43;100199.50;;;23.86;46.51
63654;BME280;49809;47.418;19.080;2022-07-15T04:27:48;100195.53;;;23.95;45.99
63654;BME280;49809;47.418;19.080;2022-07-15T04:30:59;100197.66;;;23.90;46.56
63654;BME280;49809;47.418;19.080;2022-07-15T04:34:07;100205.78;;;23.90;46.96
63654;BME280;49809;47.418;19.080;2022-07-15T04:37:11;100227.31;;;23.86;47.15
63654;BME280;49809;47.418;19.080;2022-07-15T04:40:15;100233.97;;;23.76;47.69
63654;BME280;49809;47.418;19.080;2022-07-15T04:43:23;100226.19;;;23.75;47.79
63654;BME280;49809;47.418;19.080;2022-07-15T04:46:33;100230.34;;;23.72;47.93
63654;BME280;49809;47.418;19.080;2022-07-15T04:49:40;100230.59;;;23.67;48.24
63654;BME280;49809;47.418;19.080;2022-07-15T04:53:04;100234.91;;;23.56;49.12
63654;BME280;49809;47.418;19.080;2022-07-15T04:56:13;100242.53;;;23.54;49.66
63654;BME280;49809;47.418;19.080;2022-07-15T04:59:18;100242.06;;;23.40;49.59
63654;BME280;49809;47.418;19.080;2022-07-15T05:02:25;100235.78;;;23.36;50.24
63654;BME280;49809;47.418;19.080;2022-07-15T05:05:28;100235.66;;;23.32;51.11
63654;BME280;49809;47.418;19.080;2022-07-15T05:08:34;100244.78;;;23.28;51.05
63654;BME280;49809;47.418;19.080;2022-07-15T05:11:38;100244.19;;;23.10;51.78
63654;BME280;49809;47.418;19.080;2022-07-15T05:14:49;100252.16;;;22.94;52.22
63654;BME280;49809;47.418;19.080;2022-07-15T05:17:52;100242.72;;;23.01;52.26
63654;BME280;49809;47.418;19.080;2022-07-15T05:20:57;100241.91;;;22.88;52.68
63654;BME280;49809;47.418;19.080;2022-07-15T05:24:01;100246.97;;;22.89;52.32
63654;BME280;49809;47.418;19.080;2022-07-15T05:27:28;100245.72;;;22.87;52.32
63654;BME280;49809;47.418;19.080;2022-07-15T05:30:33;100266.41;;;22.83;53.12
63654;BME280;49809;47.418;19.080;2022-07-15T05:33:43;100277.31;;;22.86;53.57
63654;BME280;49809;47.418;19.080;2022-07-15T05:36:48;100280.38;;;22.64;55.04
63654;BME280;49809;47.418;19.080;2022-07-15T05:39:54;100285.00;;;22.43;56.06
63654;BME280;49809;47.418;19.080;2022-07-15T05:42:58;100282.31;;;22.43;56.09
63654;BME280;49809;47.418;19.080;2022-07-15T05:46:10;100287.09;;;22.58;55.90
63654;BME280;49809;47.418;19.080;2022-07-15T05:49:18;100300.69;;;22.70;56.19
63654;BME280;49809;47.418;19.080;2022-07-15T05:52:26;100297.47;;;22.89;55.69
63654;BME280;49809;47.418;19.080;2022-07-15T05:55:29;100305.63;;;22.80;56.06
63654;BME280;49809;47.418;19.080;2022-07-15T05:58:33;100294.47;;;22.70;56.64
63654;BME280;49809;47.418;19.080;2022-07-15T06:01:38;100292.50;;;22.79;56.38
63654;BME280;49809;47.418;19.080;2022-07-15T06:04:48;100298.97;;;22.99;55.87
63654;BME280;49809;47.418;19.080;2022-07-15T06:07:54;100322.88;;;22.67;57.59
63654;BME280;49809;47.418;19.080;2022-07-15T06:11:00;100349.34;;;22.53;57.60
63654;BME280;49809;47.418;19.080;2022-07-15T06:14:04;100358.28;;;22.24;59.89
63654;BME280;49809;47.418;19.080;2022-07-15T06:17:12;100367.62;;;21.89;62.18
63654;BME280;49809;47.418;19.080;2022-07-15T06:20:21;100339.91;;;21.59;64.08
63654;BME280;49809;47.418;19.080;2022-07-15T06:23:29;100338.34;;;21.49;68.18
63654;BME280;49809;47.418;19.080;2022-07-15T06:26:34;100353.47;;;21.07;68.47
63654;BME280;49809;47.418;19.080;2022-07-15T06:29:44;100347.47;;;21.10;68.03
63654;BME280;49809;47.418;19.080;2022-07-15T06:33:13;100372.31;;;21.07;66.93
63654;BME280;49809;47.418;19.080;2022-07-15T06:36:45;100370.88;;;21.01;66.32
63654;BME280;49809;47.418;19.080;2022-07-15T06:40:25;100363.75;;;20.97;66.74
63654;BME280;49809;47.418;19.080;2022-07-15T06:43:54;100342.56;;;20.95;66.81
63654;BME280;49809;47.418;19.080;2022-07-15T06:47:24;100322.50;;;20.67;67.72
63654;BME280;49809;47.418;19.080;2022-07-15T06:51:02;100338.28;;;20.77;67.43
63654;BME280;49809;47.418;19.080;2022-07-15T06:54:41;100373.44;;;20.80;67.37
63654;BME280;49809;47.418;19.080;2022-07-15T06:58:21;100384.53;;;20.70;67.37
63654;BME280;49809;47.418;19.080;2022-07-15T07:02:00;100392.91;;;20.86;67.08
63654;BME280;49809;47.418;19.080;2022-07-15T07:05:25;100411.25;;;20.84;67.53
63654;BME280;49809;47.418;19.080;2022-07-15T07:08:55;100425.66;;;20.88;67.79
63654;BME280;49809;47.418;19.080;2022-07-15T07:12:33;100440.69;;;20.98;67.46
63654;BME280;49809;47.418;19.080;2022-07-15T07:16:04;100447.22;;;21.05;67.44
63654;BME280;49809;47.418;19.080;2022-07-15T07:19:33;100467.78;;;20.84;68.47
63654;BME280;49809;47.418;19.080;2022-07-15T07:23:03;100474.37;;;20.61;69.49
63654;BME280;49809;47.418;19.080;2022-07-15T07:26:35;100474.66;;;20.51;70.12
63654;BME280;49809;47.418;19.080;2022-07-15T07:30:13;100479.41;;;20.54;70.80
63654;BME280;49809;47.418;19.080;2022-07-15T07:33:45;100476.91;;;20.18;73.92
63654;BME280;49809;47.418;19.080;2022-07-15T07:37:18;100466.44;;;20.08;76.93
63654;BME280;49809;47.418;19.080;2022-07-15T07:40:48;100494.31;;;19.59;80.95
63654;BME280;49809;47.418;19.080;2022-07-15T07:44:19;100481.34;;;19.61;80.59
63654;BME280;49809;47.418;19.080;2022-07-15T07:47:48;100479.28;;;19.58;79.12
63654;BME280;49809;47.418;19.080;2022-07-15T07:51:29;100468.66;;;19.52;78.08
63654;BME280;49809;47.418;19.080;2022-07-15T07:54:59;100467.78;;;19.66;77.22
63654;BME280;49809;47.418;19.080;2022-07-15T07:58:38;100476.09;;;19.78;76.37
63654;BME280;49809;47.418;19.080;2022-07-15T08:02:11;100496.94;;;19.81;75.52
63654;BME280;49809;47.418;19.080;2022-07-15T08:05:51;100476.66;;;19.97;75.53
63654;BME280;49809;47.418;19.080;2022-07-15T08:09:19;100444.28;;;20.02;74.43
63654;BME280;49809;47.418;19.080;2022-07-15T08:12:51;100457.59;;;20.07;73.32
63654;BME280;49809;47.418;19.080;2022-07-15T08:16:21;100470.75;;;20.17;73.53
63654;BME280;49809;47.418;19.080;2022-07-15T08:20:00;100484.75;;;20.36;73.43
63654;BME280;49809;47.418;19.080;2022-07-15T08:23:39;100496.31;;;20.46;72.04
63654;BME280;49809;47.418;19.080;2022-07-15T08:27:18;100525.78;;;20.28;74.41
63654;BME280;49809;47.418;19.080;2022-07-15T08:30:44;100533.75;;;20.33;76.77
63654;BME280;49809;47.418;19.080;2022-07-15T08:34:24;100529.00;;;20.30;76.04
63654;BME280;49809;47.418;19.080;2022-07-15T08:37:50;100527.00;;;20.45;73.91
63654;BME280;49809;47.418;19.080;2022-07-15T08:41:35;100531.97;;;20.60;71.77
63654;BME280;49809;47.418;19.080;2022-07-15T08:45:04;100530.78;;;21.00;71.59
63654;BME280;49809;47.418;19.080;2022-07-15T08:48:49;100543.03;;;21.15;70.30
63654;BME280;49809;47.418;19.080;2022-07-15T08:52:18;100522.28;;;21.15;69.98
63654;BME280;49809;47.418;19.080;2022-07-15T08:55:47;100514.00;;;21.12;70.93
63654;BME280;49809;47.418;19.080;2022-07-15T08:59:17;100508.03;;;21.23;70.36
63654;BME280;49809;47.418;19.080;2022-07-15T09:02:43;100531.78;;;21.21;70.37
63654;BME280;49809;47.418;19.080;2022-07-15T09:06:33;100542.37;;;21.27;71.29
63654;BME280;49809;47.418;19.080;2022-07-15T09:10:07;100543.50;;;21.25;70.31
63654;BME280;49809;47.418;19.080;2022-07-15T09:13:53;100545.87;;;21.18;71.05
63654;BME280;49809;47.418;19.080;2022-07-15T09:17:22;100543.19;;;21.44;69.71
63654;BME280;49809;47.418;19.080;2022-07-15T09:21:23;100537.16;;;21.21;69.96
63654;BME280;49809;47.418;19.080;2022-07-15T09:25:07;100562.94;;;21.05;71.62
63654;BME280;49809;47.418;19.080;2022-07-15T09:28:41;100555.97;;;21.04;74.46
63654;BME280;49809;47.418;19.080;2022-07-15T09:32:31;100516.84;;;20.81;75.11
63654;BME280;49809;47.418;19.080;2022-07-15T09:36:31;100541.78;;;20.73;78.19
63654;BME280;49809;47.418;19.080;2022-07-15T09:40:12;100560.91;;;20.63;79.97
63654;BME280;49809;47.418;19.080;2022-07-15T09:43:46;100589.13;;;20.12;83.53
63654;BME280;49809;47.418;19.080;2022-07-15T09:47:45;100577.53;;;20.03;84.40
63654;BME280;49809;47.418;19.080;2022-07-15T09:51:12;100572.25;;;20.20;86.80
63654;BME280;49809;47.418;19.080;2022-07-15T09:55:07;100563.75;;;20.27;84.72
63654;BME280;49809;47.418;19.080;2022-07-15T09:58:39;100570.00;;;20.36;84.78
63654;BME280;49809;47.418;19.080;2022-07-15T10:02:18;100573.50;;;20.45;83.47
63654;BME280;49809;47.418;19.080;2022-07-15T10:05:51;100567.47;;;20.39;82.43
63654;BME280;49809;47.418;19.080;2022-07-15T10:09:27;100551.56;;;20.52;81.32
63654;BME280;49809;47.418;19.080;2022-07-15T10:13:39;100537.41;;;20.86;80.61
63654;BME280;49809;47.418;19.080;2022-07-15T10:21:05;100462.72;;;21.43;77.44
63654;BME280;49809;47.418;19.080;2022-07-15T10:31:59;100503.12;;;21.34;77.43
63654;BME280;49809;47.418;19.080;2022-07-15T10:36:03;100487.91;;;21.38;77.98
63654;BME280;49809;47.418;19.080;2022-07-15T10:43:18;100461.50;;;21.87;72.14
63654;BME280;49809;47.418;19.080;2022-07-15T10:46:38;100479.09;;;22.01;73.17
63654;BME280;49809;47.418;19.080;2022-07-15T10:50:40;100497.53;;;22.58;69.70
63654;BME280;49809;47.418;19.080;2022-07-15T10:54:11;100515.69;;;23.40;67.63
63654;BME280;49809;47.418;19.080;2022-07-15T10:58:14;100515.84;;;23.77;64.25
63654;BME280;49809;47.418;19.080;2022-07-15T11:01:33;100511.06;;;23.95;64.96
63654;BME280;49809;47.418;19.080;2022-07-15T11:05:18;100503.22;;;24.26;62.49
63654;BME280;49809;47.418;19.080;2022-07-15T11:16:13;100495.28;;;25.06;57.29
63654;BME280;49809;47.418;19.080;2022-07-15T11:19:44;100493.84;;;24.60;57.03
63654;BME280;49809;47.418;19.080;2022-07-15T11:23:07;100493.56;;;24.49;55.59
63654;BME280;49809;47.418;19.080;2022-07-15T11:26:46;100496.50;;;23.87;57.69
63654;BME280;49809;47.418;19.080;2022-07-15T11:30:42;100498.97;;;24.49;55.33
63654;BME280;49809;47.418;19.080;2022-07-15T11:34:15;100486.69;;;25.04;54.70
63654;BME280;49809;47.418;19.080;2022-07-15T11:38:07;100488.31;;;25.61;47.61
63654;BME280;49809;47.418;19.080;2022-07-15T11:41:35;100483.69;;;25.77;40.47
63654;BME280;49809;47.418;19.080;2022-07-15T11:45:36;100479.69;;;26.18;36.00
63654;BME280;49809;47.418;19.080;2022-07-15T11:49:27;100478.16;;;26.20;35.37
63654;BME280;49809;47.418;19.080;2022-07-15T11:53:16;100473.03;;;26.31;31.82
63654;BME280;49809;47.418;19.080;2022-07-15T11:57:04;100479.22;;;26.00;31.29
63654;BME280;49809;47.418;19.080;2022-07-15T12:00:29;100469.25;;;26.20;31.04
63654;BME280;49809;47.418;19.080;2022-07-15T12:04:27;100465.31;;;26.02;30.36
63654;BME280;49809;47.418;19.080;2022-07-15T12:08:03;100469.34;;;25.92;30.15
63654;BME280;49809;47.418;19.080;2022-07-15T12:11:34;100487.47;;;25.88;30.52
63654;BME280;49809;47.418;19.080;2022-07-15T12:14:54;100488.84;;;25.82;31.00
63654;BME280;49809;47.418;19.080;2022-07-15T12:18:28;100479.16;;;25.96;29.58
63654;BME280;49809;47.418;19.080;2022-07-15T12:21:59;100488.94;;;25.85;29.73
63654;BME280;49809;47.418;19.080;2022-07-15T12:25:18;100488.16;;;26.16;30.00
63654;BME280;49809;47.418;19.080;2022-07-15T12:29:03;100490.81;;;26.28;29.06
63654;BME280;49809;47.418;19.080;2022-07-15T12:32:41;100489.41;;;26.69;28.35
63654;BME280;49809;47.418;19.080;2022-07-15T12:36:25;100489.41;;;26.69;29.19
63654;BME280;49809;47.418;19.080;2022-07-15T12:39:53;100489.91;;;27.90;27.33
63654;BME280;49809;47.418;19.080;2022-07-15T12:43:56;100475.78;;;29.13;25.77
63654;BME280;49809;47.418;19.080;2022-07-15T12:47:20;100469.91;;;30.32;24.22
63654;BME280;49809;47.418;19.080;2022-07-15T12:51:09;100474.44;;;31.66;21.69
63654;BME280;49809;47.418;19.080;2022-07-15T12:54:45;100470.53;;;31.88;21.67
63654;BME280;49809;47.418;19.080;2022-07-15T12:58:37;100454.69;;;31.00;23.10
63654;BME280;49809;47.418;19.080;2022-07-15T13:02:04;100463.66;;;30.28;23.69
63654;BME280;49809;47.418;19.080;2022-07-15T13:05:41;100465.25;;;30.36;24.15
63654;BME280;49809;47.418;19.080;2022-07-15T13:09:16;100459.62;;;29.67;25.50
63654;BME280;49809;47.418;19.080;2022-07-15T13:13:03;100465.84;;;29.68;24.91
63654;BME280;49809;47.418;19.080;2022-07-15T13:16:49;100450.59;;;29.60;25.04
63654;BME280;49809;47.418;19.080;2022-07-15T13:20:17;100453.81;;;28.99;26.18
63654;BME280;49809;47.418;19.080;2022-07-15T13:23:40;100457.66;;;28.94;26.16
63654;BME280;49809;47.418;19.080;2022-07-15T13:27:45;100462.62;;;28.88;25.24
63654;BME280;49809;47.418;19.080;2022-07-15T13:31:28;100449.63;;;28.75;25.80
63654;BME280;49809;47.418;19.080;2022-07-15T13:35:15;100451.31;;;28.86;25.12
63654;BME280;49809;47.418;19.080;2022-07-15T13:38:40;100444.72;;;28.61;24.08
63654;BME280;49809;47.418;19.080;2022-07-15T13:42:20;100460.44;;;28.71;23.93
63654;BME280;49809;47.418;19.080;2022-07-15T13:45:46;100458.16;;;28.73;22.60
63654;BME280;49809;47.418;19.080;2022-07-15T13:49:37;100466.63;;;28.94;22.34
63654;BME280;49809;47.418;19.080;2022-07-15T13:53:26;100464.22;;;28.89;22.40
63654;BME280;49809;47.418;19.080;2022-07-15T13:57:01;100473.94;;;28.90;22.64
63654;BME280;49809;47.418;19.080;2022-07-15T14:00:28;100467.16;;;28.77;22.47
63654;BME280;49809;47.418;19.080;2022-07-15T14:04:09;100480.56;;;28.63;23.27
63654;BME280;49809;47.418;19.080;2022-07-15T14:07:36;100478.47;;;28.27;22.54
63654;BME280;49809;47.418;19.080;2022-07-15T14:11:05;100481.00;;;28.39;22.67
63654;BME280;49809;47.418;19.080;2022-07-15T14:14:31;100480.34;;;28.49;22.51
63654;BME280;49809;47.418;19.080;2022-07-15T14:18:02;100461.13;;;27.66;23.51
63654;BME280;49809;47.418;19.080;2022-07-15T14:21:30;100470.13;;;27.71;24.35
63654;BME280;49809;47.418;19.080;2022-07-15T14:25:10;100471.25;;;28.12;24.28
63654;BME280;49809;47.418;19.080;2022-07-15T14:28:42;100469.69;;;28.37;23.29
63654;BME280;49809;47.418;19.080;2022-07-15T14:32:20;100473.34;;;27.76;21.90
63654;BME280;49809;47.418;19.080;2022-07-15T14:35:24;100467.25;;;27.21;23.12
63654;BME280;49809;47.418;19.080;2022-07-15T14:38:28;100466.81;;;27.58;22.83
63654;BME280;49809;47.418;19.080;2022-07-15T14:41:54;100476.78;;;27.73;23.02
63654;BME280;49809;47.418;19.080;2022-07-15T14:44:58;100464.63;;;27.67;21.80
63654;BME280;49809;47.418;19.080;2022-07-15T14:48:05;100462.25;;;27.65;21.82
63654;BME280;49809;47.418;19.080;2022-07-15T14:51:09;100464.88;;;27.58;21.72
63654;BME280;49809;47.418;19.080;2022-07-15T14:54:13;100467.59;;;27.39;22.64
63654;BME280;49809;47.418;19.080;2022-07-15T14:57:19;100475.09;;;27.27;22.86
63654;BME280;49809;47.418;19.080;2022-07-15T15:00:24;100469.62;;;27.46;23.12
63654;BME280;49809;47.418;19.080;2022-07-15T15:03:30;100475.53;;;27.48;22.97
63654;BME280;49809;47.418;19.080;2022-07-15T15:06:34;100468.81;;;27.22;23.38
63654;BME280;49809;47.418;19.080;2022-07-15T15:09:37;100463.00;;;27.85;22.73
63654;BME280;49809;47.418;19.080;2022-07-15T15:13:02;100460.56;;;28.26;22.42
63654;BME280;49809;47.418;19.080;2022-07-15T15:16:06;100470.84;;;27.90;23.28
63654;BME280;49809;47.418;19.080;2022-07-15T15:19:09;100462.16;;;27.81;23.81
63654;BME280;49809;47.418;19.080;2022-07-15T15:22:13;100461.66;;;27.53;24.77
63654;BME280;49809;47.418;19.080;2022-07-15T15:25:16;100463.78;;;27.44;23.87
63654;BME280;49809;47.418;19.080;2022-07-15T15:28:41;100465.53;;;27.13;23.24
63654;BME280;49809;47.418;19.080;2022-07-15T15:32:04;100475.03;;;27.23;23.50
63654;BME280;49809;47.418;19.080;2022-07-15T15:35:37;100475.62;;;26.94;23.85
63654;BME280;49809;47.418;19.080;2022-07-15T15:38:44;100471.88;;;27.02;24.94
63654;BME280;49809;47.418;19.080;2022-07-15T15:41:56;100464.31;;;26.92;24.76
63654;BME280;49809;47.418;19.080;2022-07-15T15:44:59;100463.31;;;27.19;24.80
63654;BME280;49809;47.418;19.080;2022-07-15T15:48:06;100465.66;;;27.59;24.11
63654;BME280;49809;47.418;19.080;2022-07-15T15:51:10;100470.59;;;27.34;23.68
63654;BME280;49809;47.418;19.080;2022-07-15T15:54:16;100481.53;;;27.38;24.33
63654;BME280;49809;47.418;19.080;2022-07-15T15:57:23;100468.69;;;27.35;25.51
63654;BME280;49809;47.418;19.080;2022-07-15T16:00:26;100456.72;;;26.81;26.12
63654;BME280;49809;47.418;19.080;2022-07-15T16:03:29;100472.97;;;27.16;25.89
63654;BME280;49809;47.418;19.080;2022-07-15T16:06:32;100478.38;;;27.36;25.59
63654;BME280;49809;47.418;19.080;2022-07-15T16:09:56;100473.25;;;27.50;25.32
63654;BME280;49809;47.418;19.080;2022-07-15T16:13:00;100471.22;;;27.89;25.66
63654;BME280;49809;47.418;19.080;2022-07-15T16:16:03;100468.56;;;28.15;25.25
63654;BME280;49809;47.418;19.080;2022-07-15T16:19:07;100473.50;;;28.09;25.56
63654;BME280;49809;47.418;19.080;2022-07-15T16:22:13;100472.06;;;27.70;25.48
63654;BME280;49809;47.418;19.080;2022-07-15T16:25:37;100465.91;;;27.73;25.70
63654;BME280;49809;47.418;19.080;2022-07-15T16:28:41;100464.31;;;27.30;25.03
63654;BME280;49809;47.418;19.080;2022-07-15T16:31:44;100470.69;;;26.99;25.08
63654;BME280;49809;47.418;19.080;2022-07-15T16:34:51;100454.25;;;26.57;25.51
63654;BME280;49809;47.418;19.080;2022-07-15T16:37:57;100461.97;;;26.39;26.20
63654;BME280;49809;47.418;19.080;2022-07-15T16:41:04;100458.25;;;26.28;26.70
63654;BME280;49809;47.418;19.080;2022-07-15T16:44:07;100459.19;;;26.36;26.34
63654;BME280;49809;47.418;19.080;2022-07-15T16:47:15;100467.06;;;26.10;26.98
63654;BME280;49809;47.418;19.080;2022-07-15T16:50:19;100461.22;;;25.92;27.50
63654;BME280;49809;47.418;19.080;2022-07-15T16:53:25;100471.25;;;25.91;28.06
63654;BME280;49809;47.418;19.080;2022-07-15T16:56:27;100467.59;;;25.84;28.81
63654;BME280;49809;47.418;19.080;2022-07-15T16:59:31;100471.25;;;25.76;28.28
63654;BME280;49809;47.418;19.080;2022-07-15T17:02:54;100464.44;;;25.82;28.39
63654;BME280;49809;47.418;19.080;2022-07-15T17:05:57;100473.19;;;25.75;28.64
63654;BME280;49809;47.418;19.080;2022-07-15T17:09:00;100471.88;;;25.69;29.27
63654;BME280;49809;47.418;19.080;2022-07-15T17:12:04;100474.84;;;25.52;28.72
63654;BME280;49809;47.418;19.080;2022-07-15T17:15:10;100469.59;;;25.71;28.46
63654;BME280;49809;47.418;19.080;2022-07-15T17:18:15;100470.22;;;25.65;28.54
63654;BME280;49809;47.418;19.080;2022-07-15T17:21:17;100486.22;;;25.70;28.68
63654;BME280;49809;47.418;19.080;2022-07-15T17:24:21;100483.12;;;25.56;27.94
63654;BME280;49809;47.418;19.080;2022-07-15T17:27:24;100487.19;;;25.49;28.31
63654;BME280;49809;47.418;19.080;2022-07-15T17:30:28;100486.97;;;25.55;28.12